Time;durP1;ratioP1;P1;durP2;ratioP2;P2;SDS_P1;SDS_P2;PMS_P1;PMS_P2;Temp;Humidity;BMP_temperature;BMP_pressure;BME280_temperature;BME280_humidity;BME280_pressure;Samples;Min_cycle;Max_cycle;Signal;HPM_P1;HPM_P2
2023/04/04 00:01:38;;;;;;;40.97;22.00;;;;;;;10.13;100.00;99192.91;5032050;28;20029;-75
2023/04/04 00:04:04;;;;;;;44.25;22.73;;;;;;;10.33;100.00;99253.94;5031203;28;20076;-76
2023/04/04 00:06:30;;;;;;;41.80;22.92;;;;;;;10.29;100.00;99265.94;5032147;28;20029;-74
2023/04/04 00:08:55;;;;;;;46.83;23.17;;;;;;;10.30;100.00;99307.41;5031629;28;20059;-75
2023/04/04 00:11:21;;;;;;;40.58;21.33;;;;;;;9.94;100.00;99266.41;5031271;28;20037;-74
2023/04/04 00:13:46;;;;;;;41.33;19.85;;;;;;;9.82;100.00;99269.38;5031059;28;20094;-75
2023/04/04 00:16:12;;;;;;;43.00;21.90;;;;;;;10.22;100.00;99350.06;5031330;28;20085;-74
2023/04/04 00:18:37;;;;;;;47.47;23.27;;;;;;;10.12;100.00;99352.06;5031528;28;20057;-75
2023/04/04 00:21:03;;;;;;;44.33;21.92;;;;;;;9.72;100.00;99334.06;5032462;28;20052;-75
2023/04/04 00:23:28;;;;;;;36.72;18.77;;;;;;;10.16;100.00;99426.47;5015873;28;20037;-75
2023/04/04 00:25:54;;;;;;;47.08;22.63;;;;;;;10.15;100.00;99423.09;5011295;28;20033;-75
2023/04/04 00:28:21;;;;;;;51.58;24.58;;;;;;;10.14;100.00;99448.53;5011190;28;20064;-75
2023/04/04 00:30:47;;;;;;;50.33;25.60;;;;;;;9.78;100.00;99384.59;5012752;28;20041;-76
2023/04/04 00:33:13;;;;;;;56.67;25.52;;;;;;;9.84;100.00;99398.78;5011576;28;20041;-76
2023/04/04 00:35:39;;;;;;;47.83;21.92;;;;;;;10.10;100.00;99465.56;5012520;28;20092;-75
2023/04/04 00:38:05;;;;;;;54.28;26.98;;;;;;;10.10;100.00;99478.28;5011163;28;20463;-76
2023/04/04 00:40:30;;;;;;;51.55;25.33;;;;;;;9.68;100.00;99410.34;5012229;28;20045;-74
2023/04/04 00:42:59;;;;;;;51.10;24.45;;;;;;;9.69;100.00;99405.19;5044179;28;20034;-75
2023/04/04 00:45:26;;;;;;;48.70;23.70;;;;;;;10.05;100.00;99403.09;5012380;28;20034;-74
2023/04/04 00:47:54;;;;;;;48.90;24.27;;;;;;;10.03;100.00;99379.47;5010957;28;20026;-75
2023/04/04 00:50:19;;;;;;;46.90;22.45;;;;;;;10.02;100.00;99382.91;5012709;28;20034;-74
2023/04/04 00:52:44;;;;;;;52.35;25.77;;;;;;;10.04;100.00;99343.88;5011609;28;20048;-74
2023/04/04 00:55:10;;;;;;;45.50;24.35;;;;;;;9.80;100.00;99293.16;5043209;28;20036;-75
2023/04/04 00:57:35;;;;;;;50.63;24.27;;;;;;;10.09;100.00;99342.00;5010436;28;20503;-74
2023/04/04 01:00:05;;;;;;;44.80;21.58;;;;;;;9.87;100.00;99297.97;5011494;28;20033;-74
2023/04/04 01:02:31;;;;;;;47.17;22.48;;;;;;;9.98;100.00;99302.66;5011628;28;20037;-74
2023/04/04 01:04:56;;;;;;;37.90;18.15;;;;;;;9.73;100.00;99279.03;5043177;28;20049;-73
2023/04/04 01:07:22;;;;;;;40.30;19.50;;;;;;;10.13;100.00;99314.81;5010522;28;20563;-73
2023/04/04 01:09:49;;;;;;;40.38;20.70;;;;;;;9.74;100.00;99268.84;5011536;28;20065;-73
2023/04/04 01:12:14;;;;;;;36.97;17.63;;;;;;;9.74;100.00;99255.31;5011649;28;20060;-73
2023/04/04 01:14:40;;;;;;;39.35;19.92;;;;;;;10.06;100.00;99314.16;5011497;28;20061;-73
2023/04/04 01:17:05;;;;;;;43.13;19.90;;;;;;;9.77;100.00;99271.25;5011539;28;20036;-72
2023/04/04 01:19:42;;;;;;;38.42;17.90;;;;;;;10.01;100.00;99310.97;5009204;28;20151;-73
2023/04/04 01:22:09;;;;;;;40.55;19.35;;;;;;;9.98;100.00;99297.56;5010679;28;20087;-73
2023/04/04 01:24:35;;;;;;;41.40;18.63;;;;;;;9.73;100.00;99263.78;5043415;28;20030;-73
2023/04/04 01:27:01;;;;;;;44.22;20.17;;;;;;;9.58;100.00;99227.13;5010622;28;20026;-72
2023/04/04 01:29:26;;;;;;;45.88;19.85;;;;;;;9.59;100.00;99186.47;5010517;28;20034;-73
2023/04/04 01:32:12;;;;;;;43.40;19.35;;;;;;;9.87;100.00;99187.97;5009451;28;20038;-73
2023/04/04 01:34:51;;;;;;;40.83;18.33;;;;;;;9.64;100.00;99107.66;5043381;28;20442;-73
2023/04/04 01:37:36;;;;;;;40.53;17.77;;;;;;;9.59;100.00;99079.91;5011055;28;20021;-73
2023/04/04 01:40:17;;;;;;;38.05;17.48;;;;;;;9.89;100.00;99118.50;5015667;28;20148;-73
2023/04/04 01:42:44;;;;;;;39.55;16.90;;;;;;;9.85;100.00;99111.06;5010814;28;20037;-73
2023/04/04 01:45:09;;;;;;;36.00;17.05;;;;;;;9.60;100.00;99058.75;5042208;28;20056;-73
2023/04/04 01:47:42;;;;;;;36.35;17.27;;;;;;;9.72;100.00;99052.34;5010845;28;20034;-73
2023/04/04 01:50:09;;;;;;;30.42;16.08;;;;;;;9.48;100.00;99028.78;5009674;28;20033;-73
2023/04/04 01:52:35;;;;;;;39.40;17.40;;;;;;;9.73;100.00;99086.16;5009346;28;20034;-73
2023/04/04 01:55:02;;;;;;;37.55;17.40;;;;;;;9.68;100.00;99083.81;5009306;28;20030;-74
2023/04/04 01:57:28;;;;;;;37.08;16.75;;;;;;;9.72;100.00;99125.13;5008788;28;20496;-73
2023/04/04 01:59:54;;;;;;;32.33;15.10;;;;;;;9.65;100.00;99126.25;5011301;28;20088;-74
2023/04/04 02:02:20;;;;;;;35.28;16.42;;;;;;;9.99;100.00;99162.94;5009634;28;20045;-75
2023/04/04 02:04:45;;;;;;;30.48;14.05;;;;;;;9.61;100.00;99115.38;5027806;28;20080;-74
2023/04/04 02:07:11;;;;;;;30.10;14.35;;;;;;;10.09;100.00;99215.03;5013458;28;20036;-75
2023/04/04 02:09:37;;;;;;;29.30;13.65;;;;;;;10.06;100.00;99192.28;5030190;28;20614;-73
2023/04/04 02:12:02;;;;;;;27.30;13.10;;;;;;;9.84;100.00;99122.94;5012565;28;20120;-75
2023/04/04 02:14:28;;;;;;;27.33;13.40;;;;;;;9.71;100.00;99124.28;5030451;28;20124;-74
2023/04/04 02:16:53;;;;;;;24.73;12.07;;;;;;;10.03;100.00;99225.44;5030970;28;20464;-74
2023/04/04 02:19:20;;;;;;;23.58;12.52;;;;;;;9.96;100.00;99180.03;5045744;28;20045;-74
2023/04/04 02:21:45;;;;;;;22.02;12.35;;;;;;;9.65;100.00;99104.22;5029884;28;20511;-75
2023/04/04 02:24:11;;;;;;;22.38;12.60;;;;;;;10.11;100.00;99159.97;5031105;28;20029;-76
2023/04/04 02:26:36;;;;;;;20.67;11.60;;;;;;;9.75;100.00;99085.22;5030667;28;20034;-76
2023/04/04 02:29:02;;;;;;;19.50;11.57;;;;;;;10.09;100.00;99138.84;5013750;28;20097;-76
2023/04/04 02:31:27;;;;;;;16.23;9.82;;;;;;;9.73;100.00;99097.13;5019917;28;20026;-77
2023/04/04 02:33:53;;;;;;;15.45;9.82;;;;;;;10.00;100.00;99133.31;5012744;28;20038;-77
2023/04/04 02:36:18;;;;;;;17.80;10.30;;;;;;;10.07;100.00;99125.41;5015320;28;20026;-76
2023/04/04 02:38:44;;;;;;;16.92;9.40;;;;;;;9.77;100.00;99100.38;5014342;28;20141;-76
2023/04/04 02:41:09;;;;;;;16.45;10.23;;;;;;;9.98;100.00;99090.19;5014091;28;20030;-77
2023/04/04 02:43:35;;;;;;;15.60;10.20;;;;;;;9.97;100.00;99093.63;5015448;28;20519;-76
2023/04/04 02:46:00;;;;;;;19.85;10.95;;;;;;;10.09;100.00;99166.78;5013816;28;20030;-76
2023/04/04 02:48:39;;;;;;;17.08;10.13;;;;;;;9.70;100.00;99073.59;5014790;28;20419;-76
2023/04/04 02:51:05;;;;;;;19.50;11.70;;;;;;;9.74;100.00;99082.75;5014229;28;20032;-75
2023/04/04 02:53:31;;;;;;;20.83;12.45;;;;;;;9.75;100.00;99064.91;4997344;28;20033;-74
2023/04/04 02:56:01;;;;;;;20.35;11.45;;;;;;;9.67;100.00;99061.00;5029628;28;20116;-75
2023/04/04 02:58:27;;;;;;;19.67;11.52;;;;;;;9.67;100.00;99082.16;4997007;28;20040;-75
2023/04/04 03:00:53;;;;;;;18.02;11.43;;;;;;;9.58;100.00;99074.91;4998893;28;20029;-75
2023/04/04 03:03:19;;;;;;;16.52;10.75;;;;;;;9.62;100.00;99106.88;4995732;28;20043;-74
2023/04/04 03:05:45;;;;;;;20.92;11.55;;;;;;;9.67;100.00;99078.78;5003366;28;20038;-76
2023/04/04 03:08:10;;;;;;;18.70;11.40;;;;;;;9.91;100.00;99149.72;5014046;28;20030;-76
2023/04/04 03:10:36;;;;;;;17.25;11.73;;;;;;;9.93;100.00;99157.28;4996694;28;20034;-76
2023/04/04 03:13:02;;;;;;;17.80;11.35;;;;;;;9.37;100.00;99083.31;4996425;28;20026;-76
2023/04/04 03:15:28;;;;;;;19.85;12.20;;;;;;;9.38;100.00;99090.03;4995342;28;20030;-75
2023/04/04 03:17:53;;;;;;;20.58;12.68;;;;;;;9.63;100.00;99111.06;5012418;28;20096;-75
2023/04/04 03:20:19;;;;;;;20.65;12.80;;;;;;;10.02;100.00;99202.63;4993238;28;20038;-75
2023/04/04 03:22:44;;;;;;;21.65;12.98;;;;;;;9.66;100.00;99115.19;5013033;28;20022;-74
2023/04/04 03:25:10;;;;;;;23.48;13.80;;;;;;;10.10;100.00;99211.63;4996554;28;20041;-75
2023/04/04 03:27:36;;;;;;;21.60;12.65;;;;;;;9.61;100.00;99148.34;4996761;28;20030;-75
2023/04/04 03:30:02;;;;;;;23.60;13.90;;;;;;;9.59;100.00;99128.13;5006006;28;20122;-75
2023/04/04 03:32:27;;;;;;;19.70;12.35;;;;;;;9.66;100.00;99095.72;4985566;28;20034;-74
2023/04/04 03:34:53;;;;;;;19.25;11.55;;;;;;;10.16;100.00;99173.31;4995955;28;20789;-74
2023/04/04 03:37:18;;;;;;;20.30;11.73;;;;;;;9.60;100.00;99159.41;5013232;28;20041;-76
2023/04/04 03:39:44;;;;;;;19.13;11.95;;;;;;;9.98;100.00;99147.78;5013596;28;20062;-74
2023/04/04 03:42:10;;;;;;;20.48;12.63;;;;;;;9.86;100.00;99111.03;5028942;28;20408;-77
2023/04/04 03:44:39;;;;;;;20.27;12.35;;;;;;;9.70;100.00;99112.50;4996258;28;20049;-76
2023/04/04 03:47:05;;;;;;;20.42;12.35;;;;;;;9.95;100.00;99168.19;4996065;28;20033;-76
2023/04/04 03:49:33;;;;;;;21.95;13.43;;;;;;;9.29;100.00;99059.97;5028241;28;20033;-77
2023/04/04 03:51:58;;;;;;;20.42;13.80;;;;;;;9.89;100.00;99148.97;5013889;28;20080;-76
2023/04/04 03:54:26;;;;;;;22.98;14.48;;;;;;;9.47;100.00;99127.75;4994915;28;20034;-77
2023/04/04 03:56:52;;;;;;;23.75;15.20;;;;;;;9.74;100.00;99224.84;5012889;28;20484;-74
2023/04/04 03:59:17;;;;;;;20.92;14.70;;;;;;;10.01;100.00;99265.28;5012843;28;20033;-76
2023/04/04 04:01:43;;;;;;;23.80;14.75;;;;;;;9.96;100.00;99261.25;4995140;28;20120;-77
2023/04/04 04:04:08;;;;;;;26.92;16.40;;;;;;;9.93;100.00;99271.50;4996386;28;20046;-76
2023/04/04 04:06:34;;;;;;;24.17;15.52;;;;;;;10.16;100.00;99323.13;4995622;28;20049;-76
2023/04/04 04:09:00;;;;;;;21.02;13.93;;;;;;;10.16;100.00;99314.72;5013643;28;20121;-76
2023/04/04 04:11:25;;;;;;;14.63;9.73;;;;;;;10.69;100.00;99246.56;4994854;28;20026;-73
2023/04/04 04:13:51;;;;;;;21.58;13.90;;;;;;;9.97;100.00;99357.69;4994459;28;20044;-77
2023/04/04 04:16:16;;;;;;;20.55;13.32;;;;;;;10.19;100.00;99462.75;5012409;28;20079;-78
2023/04/04 04:18:42;;;;;;;21.55;14.23;;;;;;;10.23;100.00;99474.44;4994193;28;20034;-78
2023/04/04 04:21:08;;;;;;;19.55;13.25;;;;;;;10.22;100.00;99503.25;4994083;28;20044;-79
2023/04/04 04:23:33;;;;;;;20.15;13.68;;;;;;;10.06;100.00;99503.81;4995089;28;20030;-80
2023/04/04 04:25:59;;;;;;;20.38;13.55;;;;;;;9.79;100.00;99444.63;5013120;28;20570;-77
2023/04/04 04:28:25;;;;;;;21.20;14.27;;;;;;;9.99;100.00;99504.88;5007033;28;20117;-79
2023/04/04 04:30:51;;;;;;;22.58;13.75;;;;;;;10.13;100.00;99574.69;5012983;28;20120;-78
2023/04/04 04:33:17;;;;;;;22.50;14.60;;;;;;;9.77;100.00;99494.59;5011708;28;20088;-76
2023/04/04 04:35:42;;;;;;;18.30;13.57;;;;;;;10.13;100.00;99578.94;5029342;28;20036;-76
2023/04/04 04:38:08;;;;;;;20.58;14.00;;;;;;;9.81;100.00;99556.25;5012038;28;20455;-75
2023/04/04 04:40:34;;;;;;;20.20;15.50;;;;;;;9.75;100.00;99526.81;4996243;28;20124;-76
2023/04/04 04:42:59;;;;;;;21.88;14.63;;;;;;;9.99;100.00;99565.81;4994582;28;20022;-76
2023/04/04 04:45:25;;;;;;;22.95;14.32;;;;;;;10.34;100.00;99637.50;4993175;28;20034;-72
2023/04/04 04:47:51;;;;;;;22.92;15.27;;;;;;;10.24;100.00;99686.13;4995583;28;20026;-76
2023/04/04 04:50:16;;;;;;;19.83;14.80;;;;;;;9.85;100.00;99624.66;5012512;28;20038;-77
2023/04/04 04:52:42;;;;;;;20.67;14.48;;;;;;;9.58;100.00;99602.66;5012252;28;20163;-77
2023/04/04 04:55:09;;;;;;;21.08;14.18;;;;;;;9.57;100.00;99611.13;5011612;28;20037;-76
2023/04/04 04:57:35;;;;;;;18.35;14.32;;;;;;;10.18;100.00;99750.63;4993229;28;20112;-76
2023/04/04 05:00:03;;;;;;;19.60;14.68;;;;;;;10.18;100.00;99754.91;4994352;28;20477;-77
2023/04/04 05:02:29;;;;;;;22.17;14.77;;;;;;;9.60;100.00;99659.28;5012074;28;20122;-76
2023/04/04 05:04:55;;;;;;;18.27;14.65;;;;;;;10.24;100.00;99783.47;5012146;28;20169;-76
2023/04/04 05:07:22;;;;;;;19.75;14.50;;;;;;;10.22;100.00;99805.53;5031598;28;20491;-75
2023/04/04 05:09:47;;;;;;;21.70;14.80;;;;;;;9.94;100.00;99786.88;5014190;28;20120;-75
2023/04/04 05:12:13;;;;;;;19.80;14.65;;;;;;;10.21;100.00;99834.38;5012693;28;20120;-76
2023/04/04 05:14:38;;;;;;;25.42;16.38;;;;;;;9.76;100.00;99766.25;5031063;28;20034;-76
2023/04/04 05:17:03;;;;;;;25.55;16.30;;;;;;;10.19;100.00;99809.88;5014229;28;20522;-76
2023/04/04 05:19:29;;;;;;;24.10;16.30;;;;;;;9.84;100.00;99755.03;5013821;28;20079;-76
2023/04/04 05:21:55;;;;;;;25.15;17.88;;;;;;;10.20;100.00;99809.03;5014052;28;20503;-77
2023/04/04 05:24:22;;;;;;;30.15;18.38;;;;;;;10.23;100.00;99830.09;5014075;28;20053;-78
2023/04/04 05:26:47;;;;;;;28.23;17.85;;;;;;;10.32;100.00;99832.34;5031819;28;20030;-76
2023/04/04 05:29:13;;;;;;;24.98;17.90;;;;;;;10.30;100.00;99863.78;5003394;28;20034;-77
2023/04/04 05:31:38;;;;;;;26.60;17.52;;;;;;;9.99;100.00;99840.06;4994259;28;20034;-76
2023/04/04 05:34:07;;;;;;;29.00;18.75;;;;;;;10.29;100.00;99846.84;5026577;28;20559;-78
2023/04/04 05:36:36;;;;;;;26.80;17.95;;;;;;;10.34;100.00;99839.91;4994308;28;20041;-78
2023/04/04 05:39:03;;;;;;;30.13;18.88;;;;;;;10.44;100.00;99925.19;5012104;28;20034;-77
2023/04/04 05:41:29;;;;;;;27.48;18.35;;;;;;;10.32;100.00;99925.50;5011816;28;20492;-77
2023/04/04 05:43:55;;;;;;;25.92;17.02;;;;;;;10.33;100.00;99989.00;5012462;28;20061;-78
2023/04/04 05:46:21;;;;;;;22.98;15.50;;;;;;;9.92;100.00;99978.22;4994375;28;20029;-77
2023/04/04 05:48:47;;;;;;;19.90;15.30;;;;;;;10.31;100.00;100099.19;5026778;28;20033;-77
2023/04/04 05:51:12;;;;;;;27.38;18.15;;;;;;;10.18;100.00;100171.50;5038788;28;20426;-78
2023/04/04 05:53:37;;;;;;;20.35;16.13;;;;;;;10.10;100.00;100245.31;5013637;28;20037;-78
2023/04/04 05:56:03;;;;;;;30.15;21.55;;;;;;;10.70;100.00;100372.75;5013221;28;20503;-78
2023/04/04 05:58:29;;;;;;;29.30;23.00;;;;;;;10.17;100.00;100381.50;5013191;28;20060;-77
2023/04/04 06:00:54;;;;;;;27.60;20.75;;;;;;;10.59;100.00;100478.09;5014090;28;20099;-78
2023/04/04 06:03:20;;;;;;;26.38;17.52;;;;;;;9.89;100.00;100352.41;5012942;28;20140;-77
2023/04/04 06:05:51;;;;;;;24.20;16.83;;;;;;;10.03;100.00;100349.59;5013809;28;20030;-78
2023/04/04 06:08:17;;;;;;;;;;;;;;;10.60;100.00;100406.06;5015108;28;20045;-78
2023/04/04 06:10:42;;;;;;;23.30;15.65;;;;;;;10.75;100.00;100367.56;4994739;28;19945;-76
2023/04/04 06:13:08;;;;;;;24.05;15.63;;;;;;;10.14;100.00;100249.47;4994325;28;20039;-76
2023/04/04 06:15:33;;;;;;;24.05;15.15;;;;;;;10.58;100.00;100278.97;4977884;28;20037;-80
2023/04/04 06:17:59;;;;;;;20.73;14.15;;;;;;;10.22;100.00;100196.78;4994586;28;20034;-78
2023/04/04 06:20:24;;;;;;;26.77;15.45;;;;;;;10.57;100.00;100184.94;4979385;28;20034;-78
2023/04/04 06:22:50;;;;;;;29.48;17.45;;;;;;;10.54;100.00;100113.88;4995146;28;20034;-77
2023/04/04 06:25:16;;;;;;;21.42;14.48;;;;;;;10.44;100.00;99992.09;4994491;28;20481;-77
2023/04/04 06:27:41;;;;;;;24.70;15.90;;;;;;;10.15;100.00;99867.56;4994472;28;20064;-77
2023/04/04 06:30:07;;;;;;;23.52;14.57;;;;;;;9.82;100.00;99763.53;4995485;28;20061;-77
2023/04/04 06:32:32;;;;;;;23.33;15.13;;;;;;;10.17;100.00;99784.53;4994678;28;20128;-77
2023/04/04 06:34:58;;;;;;;23.08;14.93;;;;;;;10.58;100.00;99840.94;4993559;28;20030;-78
2023/04/04 06:37:23;;;;;;;23.17;15.60;;;;;;;10.12;100.00;99747.47;4977745;28;20089;-82
2023/04/04 06:39:49;;;;;;;22.73;15.40;;;;;;;10.42;100.00;99782.06;4994918;28;20432;-76
2023/04/04 06:42:14;;;;;;;22.40;16.05;;;;;;;10.56;100.00;99786.75;4995090;28;20042;-77
2023/04/04 06:44:40;;;;;;;28.05;15.93;;;;;;;10.57;100.00;99791.78;4977704;28;20118;-77
2023/04/04 06:47:05;;;;;;;22.45;15.13;;;;;;;10.51;100.00;99775.88;4997210;28;20030;-79
2023/04/04 06:49:32;;;;;;;24.58;16.50;;;;;;;10.13;100.00;99711.84;4996987;28;20033;-76
2023/04/04 06:51:58;;;;;;;23.92;15.02;;;;;;;10.33;100.00;99727.31;5014251;28;20026;-77
2023/04/04 06:54:24;;;;;;;23.42;15.65;;;;;;;9.95;100.00;99643.81;5014849;28;20026;-81
2023/04/04 06:56:50;;;;;;;22.45;15.60;;;;;;;10.64;100.00;99751.75;5015187;28;20412;-78
2023/04/04 06:59:21;;;;;;;21.52;14.90;;;;;;;10.56;100.00;99764.69;4998017;28;20026;-76
2023/04/04 07:01:47;;;;;;;22.40;16.15;;;;;;;10.64;100.00;99755.13;5014369;28;20096;-76
2023/04/04 07:04:12;;;;;;;23.60;14.80;;;;;;;10.53;100.00;99738.56;5014664;28;20038;-75
2023/04/04 07:06:38;;;;;;;20.80;16.05;;;;;;;10.67;100.00;99764.38;5014457;28;20029;-75
2023/04/04 07:09:03;;;;;;;19.83;14.65;;;;;;;10.56;100.00;99758.81;4996422;28;20061;-76
2023/04/04 07:11:29;;;;;;;23.27;14.43;;;;;;;10.10;100.00;99691.59;4996059;28;20480;-75
2023/04/04 07:13:55;;;;;;;22.00;15.35;;;;;;;9.91;100.00;99654.09;4996481;28;20110;-75
2023/04/04 07:16:20;;;;;;;22.65;14.85;;;;;;;10.60;100.00;99742.56;4996577;28;20030;-76
2023/04/04 07:18:46;;;;;;;20.05;15.25;;;;;;;10.26;100.00;99689.44;5014077;28;20026;-75
2023/04/04 07:21:12;;;;;;;21.48;14.35;;;;;;;10.74;100.00;99766.66;5011965;28;20534;-77
2023/04/04 07:23:37;;;;;;;23.98;16.00;;;;;;;10.94;100.00;99759.22;5013873;28;20147;-76
2023/04/04 07:26:03;;;;;;;26.95;15.18;;;;;;;10.55;100.00;99719.84;5014420;28;20038;-75
2023/04/04 07:28:28;;;;;;;18.25;13.43;;;;;;;10.72;100.00;99758.25;5013797;28;20036;-78
2023/04/04 07:30:54;;;;;;;22.00;14.20;;;;;;;10.50;100.00;99703.88;5013338;28;20073;-78
2023/04/04 07:33:20;;;;;;;15.65;11.05;;;;;;;10.09;100.00;99641.66;5013515;28;20034;-75
2023/04/04 07:35:45;;;;;;;19.48;13.57;;;;;;;10.06;100.00;99634.13;4996604;28;20025;-77
2023/04/04 07:38:11;;;;;;;20.45;13.73;;;;;;;10.48;100.00;99673.44;4996425;28;20133;-77
2023/04/04 07:40:36;;;;;;;17.38;12.63;;;;;;;10.77;100.00;99753.03;5013286;28;20029;-77
2023/04/04 07:43:02;;;;;;;18.67;13.63;;;;;;;10.45;100.00;99675.28;4996643;28;20117;-76
2023/04/04 07:45:27;;;;;;;20.75;14.35;;;;;;;10.81;100.00;99752.03;5011648;28;20034;-76
2023/04/04 07:47:53;;;;;;;20.23;14.00;;;;;;;10.78;100.00;99734.34;5013434;28;20034;-77
2023/04/04 07:50:18;;;;;;;21.50;14.85;;;;;;;10.79;100.00;99736.00;5012325;28;20125;-77
2023/04/04 07:52:50;;;;;;;23.33;13.82;;;;;;;10.79;100.00;99747.03;5013735;28;20035;-75
2023/04/04 07:55:15;;;;;;;23.35;15.25;;;;;;;10.81;100.00;99726.63;5012916;28;20034;-76
2023/04/04 07:57:41;;;;;;;22.88;14.82;;;;;;;10.86;100.00;99706.94;5013098;28;20034;-78
2023/04/04 08:00:10;;;;;;;20.33;14.65;;;;;;;10.84;100.00;99724.78;5013684;28;20116;-78
2023/04/04 08:02:37;;;;;;;20.35;14.05;;;;;;;10.95;100.00;99719.38;5012470;28;20115;-76
2023/04/04 08:05:03;;;;;;;22.65;15.82;;;;;;;10.91;100.00;99703.38;5052118;28;20053;-77
2023/04/04 08:07:28;;;;;;;17.45;13.75;;;;;;;10.86;100.00;99699.31;5035520;28;20423;-77
2023/04/04 08:09:53;;;;;;;20.92;14.10;;;;;;;10.48;100.00;99616.72;5035000;28;20041;-76
2023/04/04 08:12:19;;;;;;;26.85;15.27;;;;;;;11.01;100.00;99691.19;5034801;28;20033;-77
2023/04/04 08:14:46;;;;;;;39.75;15.88;;;;;;;10.78;100.00;99625.00;5035161;28;20485;-79
2023/04/04 08:17:11;;;;;;;35.53;16.67;;;;;;;11.07;100.00;99642.63;5052803;28;20083;-76
2023/04/04 08:19:37;;;;;;;55.65;18.08;;;;;;;11.32;100.00;99694.31;5052828;28;20360;-77
2023/04/04 08:22:02;;;;;;;38.60;17.75;;;;;;;11.35;100.00;99687.38;5035122;28;20063;-76
2023/04/04 08:24:28;;;;;;;24.70;15.13;;;;;;;10.86;100.00;99608.59;5052515;28;20032;-79
2023/04/04 08:26:53;;;;;;;23.15;15.02;;;;;;;11.38;100.00;99686.44;5034977;28;20033;-79
2023/04/04 08:29:19;;;;;;;18.52;13.48;;;;;;;10.95;100.00;99617.63;5052670;28;20060;-76
2023/04/04 08:31:44;;;;;;;20.35;13.27;;;;;;;10.58;100.00;99566.41;5052977;28;20025;-78
2023/04/04 08:34:10;;;;;;;18.55;12.55;;;;;;;11.15;100.00;99676.28;5049581;28;20106;-78
2023/04/04 08:36:35;;;;;;;20.98;14.13;;;;;;;11.29;100.00;99684.22;5015484;28;20067;-76
2023/04/04 08:39:01;;;;;;;15.40;11.75;;;;;;;10.32;100.00;99564.75;5015701;28;20349;-77
2023/04/04 08:41:27;;;;;;;17.05;13.15;;;;;;;11.11;100.00;99689.97;5014529;28;20025;-78
2023/04/04 08:43:56;;;;;;;19.45;12.98;;;;;;;10.38;100.00;99574.69;5032661;28;20029;-77
2023/04/04 08:46:23;;;;;;;20.23;14.00;;;;;;;11.29;100.00;99707.97;5015308;28;20067;-77
2023/04/04 08:48:51;;;;;;;21.05;15.00;;;;;;;10.80;100.00;99634.25;5015484;28;20403;-77
2023/04/04 08:51:18;;;;;;;17.90;14.38;;;;;;;11.25;100.00;99697.97;5032369;28;20033;-77
2023/04/04 08:53:44;;;;;;;22.27;15.77;;;;;;;10.96;100.00;99642.16;5014647;28;20129;-78
2023/04/04 08:56:10;;;;;;;23.67;16.75;;;;;;;10.94;100.00;99641.38;5014687;28;20223;-77
2023/04/04 08:58:37;;;;;;;24.10;16.38;;;;;;;11.03;100.00;99651.25;5014870;28;20116;-77
2023/04/04 09:01:04;;;;;;;24.20;16.67;;;;;;;11.14;100.00;99660.16;5032241;28;20033;-77
2023/04/04 09:03:33;;;;;;;26.17;15.95;;;;;;;10.94;100.00;99657.50;5031746;28;20081;-77
2023/04/04 09:05:59;;;;;;;23.38;15.70;;;;;;;11.38;100.00;99721.25;5046436;28;20097;-78
2023/04/04 09:08:25;;;;;;;20.40;15.45;;;;;;;11.38;100.00;99718.69;5031292;28;20557;-77
2023/04/04 09:10:51;;;;;;;21.77;15.13;;;;;;;11.14;100.00;99675.44;4679835;28;10000346;-79
2023/04/04 09:13:18;;;;;;;20.05;14.38;;;;;;;11.09;100.00;99667.13;5013009;28;20117;-76
2023/04/04 09:15:48;;;;;;;18.13;14.07;;;;;;;11.19;100.00;99678.63;5013608;28;20087;-75
2023/04/04 09:18:15;;;;;;;16.35;14.63;;;;;;;11.00;100.00;99661.53;5029496;28;20033;-76
2023/04/04 09:20:47;;;;;;;18.58;13.52;;;;;;;11.09;100.00;99659.47;5029499;28;20048;-77
2023/04/04 09:23:19;;;;;;;19.85;13.93;;;;;;;11.45;100.00;99720.97;5030398;28;20037;-82
2023/04/04 09:25:54;;;;;;;17.02;12.88;;;;;;;11.40;100.00;99735.59;5029192;28;20053;-76
2023/04/04 09:28:21;;;;;;;16.42;13.05;;;;;;;11.14;100.00;99655.09;5012081;28;20187;-76
2023/04/04 09:30:48;;;;;;;23.25;13.32;;;;;;;11.16;100.00;99662.66;5009174;28;20036;-76
2023/04/04 09:33:16;;;;;;;28.75;14.90;;;;;;;11.65;100.00;99728.72;5028169;28;20085;-76
2023/04/04 09:35:51;;;;;;;35.22;14.68;;;;;;;11.42;100.00;99667.66;5011679;28;20064;-80
2023/04/04 09:38:17;;;;;;;23.65;13.40;;;;;;;11.78;100.00;99721.50;5011094;28;20044;-75
2023/04/04 09:40:43;;;;;;;19.23;12.40;;;;;;;11.47;100.00;99673.38;5015545;28;20038;-76
2023/04/04 09:43:11;;;;;;;16.60;11.18;;;;;;;11.70;100.00;99729.44;5028061;28;20522;-76
2023/04/04 09:45:43;;;;;;;15.95;10.95;;;;;;;11.71;100.00;99741.25;5029207;28;20045;-74
2023/04/04 09:48:09;;;;;;;18.30;11.85;;;;;;;11.74;100.00;99736.06;5009522;28;20026;-73
2023/04/04 09:50:36;;;;;;;13.73;10.02;;;;;;;12.32;100.00;99747.44;5010183;28;20034;-79
2023/04/04 09:53:02;;;;;;;23.20;13.00;;;;;;;12.05;100.00;99749.31;5012277;28;20087;-75
2023/04/04 09:55:36;;;;;;;17.45;12.45;;;;;;;11.95;100.00;99753.09;5011853;28;20105;-76
2023/04/04 09:58:14;;;;;;;17.02;12.57;;;;;;;11.44;100.00;99685.41;5014216;28;20034;-75
2023/04/04 10:00:44;;;;;;;15.48;12.13;;;;;;;11.74;100.00;99756.44;5012547;28;20030;-76
2023/04/04 10:03:12;;;;;;;17.70;11.73;;;;;;;11.64;100.00;99744.91;5007970;28;20055;-76
2023/04/04 10:05:38;;;;;;;18.83;11.73;;;;;;;11.73;100.00;99743.75;5024718;28;20121;-77
2023/04/04 10:08:32;;;;;;;15.45;11.63;;;;;;;11.94;100.00;99753.97;5008141;28;20042;-76
2023/04/04 10:11:00;;;;;;;14.15;11.18;;;;;;;11.69;100.00;99702.28;4992504;28;20084;-77
2023/04/04 10:13:35;;;;;;;14.57;10.55;;;;;;;11.70;100.00;99680.22;4992064;28;20046;-79
2023/04/04 10:16:03;;;;;;;16.00;11.35;;;;;;;12.46;100.00;99749.47;5008171;28;20073;-76
2023/04/04 10:18:31;;;;;;;21.15;12.60;;;;;;;12.68;100.00;99756.19;4992576;28;20061;-75
2023/04/04 10:21:01;;;;;;;15.98;12.18;;;;;;;12.72;100.00;99747.53;5008423;28;20030;-77
2023/04/04 10:23:27;;;;;;;19.00;12.70;;;;;;;12.90;100.00;99768.91;4992514;28;20083;-77
2023/04/04 10:25:54;;;;;;;16.77;10.95;;;;;;;12.49;100.00;99709.38;4997295;28;20034;-74
2023/04/04 10:28:20;;;;;;;16.52;11.10;;;;;;;12.95;100.00;99744.84;5011047;28;20084;-74
2023/04/04 10:31:25;;;;;;;14.30;10.10;;;;;;;13.10;100.00;99781.72;5010598;28;20050;-75
2023/04/04 10:34:06;;;;;;;14.93;9.88;;;;;;;12.86;100.00;99791.16;5010187;28;20042;-75
2023/04/04 10:36:43;;;;;;;16.90;10.73;;;;;;;12.60;100.00;99793.06;5011815;28;20041;-75
2023/04/04 10:39:17;;;;;;;13.90;9.65;;;;;;;12.01;100.00;99681.53;5011924;28;20782;-76
2023/04/04 10:41:57;;;;;;;12.70;10.10;;;;;;;12.65;100.00;99774.19;5012054;28;20041;-76
2023/04/04 10:44:33;;;;;;;10.20;8.43;;;;;;;12.96;100.00;99829.88;5012509;28;20503;-81
2023/04/04 10:47:13;;;;;;;14.55;8.73;;;;;;;12.54;100.00;99778.03;5010164;28;20026;-76
2023/04/04 10:49:40;;;;;;;9.85;8.02;;;;;;;12.62;100.00;99771.72;5011351;28;20030;-75
2023/04/04 10:52:06;;;;;;;12.40;8.77;;;;;;;12.83;100.00;99795.56;5011618;28;20092;-76
2023/04/04 10:54:32;;;;;;;10.32;7.70;;;;;;;13.01;100.00;99864.53;5011823;28;20480;-75
2023/04/04 10:57:02;;;;;;;9.63;7.88;;;;;;;13.02;100.00;99862.81;5014120;28;20050;-76
2023/04/04 10:59:28;;;;;;;10.77;8.18;;;;;;;13.38;100.00;99863.09;5014486;28;20037;-76
2023/04/04 11:01:58;;;;;;;8.88;7.25;;;;;;;13.24;100.00;99890.91;5015619;28;20030;-75
2023/04/04 11:04:37;;;;;;;9.43;7.50;;;;;;;13.46;100.00;99887.44;5029540;28;20115;-77
2023/04/04 11:07:13;;;;;;;10.75;7.68;;;;;;;13.91;100.00;99877.81;5034920;28;20033;-76
2023/04/04 11:10:19;;;;;;;10.55;7.25;;;;;;;14.25;100.00;99884.84;5017263;28;20029;-75
2023/04/04 11:12:46;;;;;;;8.73;6.40;;;;;;;13.93;100.00;99839.41;5017065;28;20522;-78